Time;durP1;ratioP1;P1;durP2;ratioP2;P2;SDS_P1;SDS_P2;PMS_P1;PMS_P2;Temp;Humidity;BMP_temperature;BMP_pressure;BME280_temperature;BME280_humidity;BME280_pressure;Samples;Min_cycle;Max_cycle;Signal;HPM_P1;HPM_P2
2023/11/20 00:02:20;;;;;;;;;;;12.10;99.90;;;;;;5010385;28;19929;-73
2023/11/20 00:04:45;;;;;;;;;;;12.10;99.90;;;;;;5013873;28;19909;-77
2023/11/20 00:07:11;;;;;;;;;;;12.10;99.90;;;;;;5013804;28;20479;-73
2023/11/20 00:09:36;;;;;;;;;;;12.00;99.90;;;;;;5013838;28;19945;-74
2023/11/20 00:12:02;;;;;;;;;;;12.10;99.90;;;;;;5013582;28;19964;-73
2023/11/20 00:14:28;;;;;;;;;;;12.00;99.90;;;;;;5013812;28;19909;-77
2023/11/20 00:16:53;;;;;;;;;;;12.00;99.90;;;;;;5012289;28;19917;-77
2023/11/20 00:19:20;;;;;;;;;;;12.00;99.90;;;;;;5013405;28;20434;-73
2023/11/20 00:21:45;;;;;;;;;;;12.00;99.90;;;;;;5013562;28;19940;-73
2023/11/20 00:24:11;;;;;;;;;;;11.90;99.90;;;;;;5013487;28;19913;-73
2023/11/20 00:26:36;;;;;;;;;;;11.90;99.90;;;;;;5013547;28;20008;-77
2023/11/20 00:29:04;;;;;;;;;;;11.80;99.90;;;;;;5013557;28;19910;-77
2023/11/20 00:31:30;;;;;;;;;;;11.80;99.90;;;;;;5013111;28;19961;-77
2023/11/20 00:33:55;;;;;;;;;;;11.70;99.90;;;;;;5013354;28;19909;-77
2023/11/20 00:36:21;;;;;;;;;;;11.60;99.90;;;;;;5012872;28;20376;-73
2023/11/20 00:38:47;;;;;;;;;;;11.50;99.90;;;;;;5013377;28;19968;-73
2023/11/20 00:41:13;;;;;;;;;;;11.50;99.90;;;;;;5013236;28;19913;-77
2023/11/20 00:43:39;;;;;;;;;;;11.40;99.90;;;;;;5013526;28;19917;-77
2023/11/20 00:46:04;;;;;;;;;;;11.40;99.90;;;;;;5013358;28;19909;-73
2023/11/20 00:48:31;;;;;;;;;;;11.40;99.90;;;;;;5013524;28;19918;-74
2023/11/20 00:50:56;;;;;;;;;;;11.40;99.90;;;;;;5013208;28;19910;-73
2023/11/20 00:53:22;;;;;;;;;;;11.40;99.90;;;;;;5013168;28;19913;-77
2023/11/20 00:55:49;;;;;;;;;;;11.40;99.90;;;;;;5003332;28;19918;-77
2023/11/20 00:58:14;;;;;;;;;;;11.40;99.90;;;;;;4998606;28;19956;-73
2023/11/20 01:00:40;;;;;;;;;;;11.40;99.90;;;;;;5013018;28;19913;-73
2023/11/20 01:03:05;;;;;;;;;;;11.60;99.90;;;;;;5011854;28;19918;-73
2023/11/20 01:05:31;;;;;;;;;;;11.80;99.90;;;;;;5013185;28;19909;-73
2023/11/20 01:07:56;;;;;;;;;;;12.00;99.90;;;;;;5027797;28;19910;-77
2023/11/20 01:10:22;;;;;;;;;;;12.10;99.90;;;;;;5013188;28;19910;-76
2023/11/20 01:12:49;;;;;;;;;;;12.20;99.90;;;;;;5012639;28;20382;-73
2023/11/20 01:15:14;;;;;;;;;;;12.20;99.90;;;;;;5011601;28;20276;-74
2023/11/20 01:17:40;;;;;;;;;;;12.30;99.90;;;;;;5013217;28;19917;-73
2023/11/20 01:20:05;;;;;;;;;;;12.30;99.90;;;;;;5012858;28;19913;-78
2023/11/20 01:22:31;;;;;;;;;;;12.30;99.90;;;;;;5012867;28;20384;-78
2023/11/20 01:24:57;;;;;;;;;;;12.20;99.90;;;;;;5013222;28;19910;-73
2023/11/20 01:27:22;;;;;;;;;;;12.00;99.90;;;;;;5012775;28;19909;-73
2023/11/20 01:29:48;;;;;;;;;;;11.90;99.90;;;;;;5012538;28;19909;-74
2023/11/20 01:32:13;;;;;;;;;;;11.80;99.90;;;;;;5012647;28;19983;-78
2023/11/20 01:34:39;;;;;;;;;;;11.80;99.90;;;;;;5012794;28;19924;-78
2023/11/20 01:37:06;;;;;;;;;;;11.70;99.90;;;;;;5012790;28;19920;-73
2023/11/20 01:39:32;;;;;;;;;;;11.70;99.90;;;;;;5013066;28;19909;-74
2023/11/20 01:41:58;;;;;;;;;;;11.70;99.90;;;;;;5012935;28;19914;-74
2023/11/20 01:44:24;;;;;;;;;;;11.60;99.90;;;;;;5012838;28;20009;-73
2023/11/20 01:46:50;;;;;;;;;;;11.60;99.90;;;;;;5012747;28;19914;-78
2023/11/20 01:49:15;;;;;;;;;;;11.60;99.90;;;;;;5013729;28;20019;-78
2023/11/20 01:51:41;;;;;;;;;;;11.60;99.90;;;;;;5016235;28;19921;-74
2023/11/20 01:54:08;;;;;;;;;;;11.50;99.90;;;;;;5016239;28;20012;-73
2023/11/20 01:56:34;;;;;;;;;;;11.70;99.90;;;;;;5000691;28;20285;-74
2023/11/20 01:59:03;;;;;;;;;;;11.80;99.90;;;;;;4996801;28;19936;-78
2023/11/20 02:01:31;;;;;;;;;;;11.90;99.90;;;;;;5006010;28;19913;-78
2023/11/20 02:03:59;;;;;;;;;;;12.00;99.90;;;;;;5015772;28;19909;-74
2023/11/20 02:06:26;;;;;;;;;;;12.10;99.90;;;;;;5016001;28;19996;-73
2023/11/20 02:08:51;;;;;;;;;;;12.10;99.90;;;;;;5015779;28;19909;-73
2023/11/20 02:11:17;;;;;;;;;;;12.20;99.90;;;;;;5015742;28;19916;-78
2023/11/20 02:13:43;;;;;;;;;;;12.20;99.90;;;;;;5016214;28;20290;-78
2023/11/20 02:16:09;;;;;;;;;;;12.20;99.90;;;;;;5015670;28;19914;-73
2023/11/20 02:18:35;;;;;;;;;;;12.10;99.90;;;;;;5016193;28;20412;-74
2023/11/20 02:21:01;;;;;;;;;;;12.00;99.90;;;;;;5015309;28;20303;-78
2023/11/20 02:23:26;;;;;;;;;;;12.00;99.90;;;;;;5015748;28;20455;-73
2023/11/20 02:26:03;;;;;;;;;;;12.00;99.90;;;;;;5015476;28;19910;-78
2023/11/20 02:28:36;;;;;;;;;;;12.00;99.90;;;;;;5015685;28;19913;-78
2023/11/20 02:31:01;;;;;;;;;;;12.00;99.90;;;;;;5015187;28;20413;-73
2023/11/20 02:33:27;;;;;;;;;;;12.00;99.90;;;;;;5015698;28;19917;-73
2023/11/20 02:35:52;;;;;;;;;;;12.00;99.90;;;;;;5015306;28;19909;-74
2023/11/20 02:38:18;;;;;;;;;;;12.00;99.90;;;;;;5015209;28;19910;-78
2023/11/20 02:40:43;;;;;;;;;;;12.10;99.90;;;;;;5015239;28;19909;-74
2023/11/20 02:43:09;;;;;;;;;;;12.20;99.90;;;;;;5015334;28;19917;-73
2023/11/20 02:45:35;;;;;;;;;;;12.20;99.90;;;;;;5015284;28;19913;-74
2023/11/20 02:48:01;;;;;;;;;;;12.20;99.90;;;;;;5015140;28;19914;-77
2023/11/20 02:50:28;;;;;;;;;;;12.10;99.90;;;;;;5015143;28;19914;-74
2023/11/20 02:52:54;;;;;;;;;;;12.10;99.90;;;;;;5015271;28;19924;-78
2023/11/20 02:55:20;;;;;;;;;;;12.00;99.90;;;;;;5012407;28;20491;-73
2023/11/20 02:57:45;;;;;;;;;;;11.90;99.90;;;;;;5012937;28;19913;-73
2023/11/20 03:00:12;;;;;;;;;;;11.80;99.90;;;;;;5014315;28;20368;-78
2023/11/20 03:02:38;;;;;;;;;;;11.70;99.90;;;;;;5013744;28;19923;-77
2023/11/20 03:05:04;;;;;;;;;;;11.80;99.90;;;;;;5014935;28;20432;-77
2023/11/20 03:07:30;;;;;;;;;;;11.80;99.90;;;;;;5014836;28;19909;-78
2023/11/20 03:09:55;;;;;;;;;;;11.90;99.90;;;;;;5014566;28;20435;-78
2023/11/20 03:12:21;;;;;;;;;;;12.00;99.90;;;;;;5014743;28;20376;-73
2023/11/20 03:14:46;;;;;;;;;;;12.00;99.90;;;;;;5014599;28;20319;-73
2023/11/20 03:17:11;;;;;;;;;;;12.10;99.90;;;;;;5014846;28;20344;-78
2023/11/20 03:19:37;;;;;;;;;;;12.10;99.90;;;;;;5014461;28;19918;-78
2023/11/20 03:22:03;;;;;;;;;;;12.10;99.90;;;;;;5013821;28;19913;-78
2023/11/20 03:24:28;;;;;;;;;;;12.00;99.90;;;;;;5014541;28;20296;-73
2023/11/20 03:26:54;;;;;;;;;;;12.00;99.90;;;;;;5014468;28;20300;-73
2023/11/20 03:29:19;;;;;;;;;;;11.90;99.90;;;;;;5013051;28;19910;-78
2023/11/20 03:31:45;;;;;;;;;;;11.90;99.90;;;;;;5014268;28;19922;-78
2023/11/20 03:34:10;;;;;;;;;;;11.90;99.90;;;;;;5014271;28;19961;-74
2023/11/20 03:36:36;;;;;;;;;;;12.00;99.90;;;;;;5014300;28;19910;-73
2023/11/20 03:39:02;;;;;;;;;;;12.10;99.90;;;;;;5014293;28;19999;-73
2023/11/20 03:41:27;;;;;;;;;;;12.20;99.90;;;;;;5014115;28;20012;-78
2023/11/20 03:43:53;;;;;;;;;;;12.20;99.90;;;;;;5014182;28;20502;-78
2023/11/20 03:46:19;;;;;;;;;;;12.30;99.90;;;;;;5014193;28;20315;-78
2023/11/20 03:48:45;;;;;;;;;;;12.40;99.90;;;;;;5014184;28;19949;-73
2023/11/20 03:51:10;;;;;;;;;;;12.40;99.90;;;;;;5013955;28;19952;-74
2023/11/20 03:53:36;;;;;;;;;;;12.50;99.90;;;;;;5014178;28;19909;-74
2023/11/20 03:56:01;;;;;;;;;;;12.50;99.90;;;;;;5008037;28;19921;-77
2023/11/20 03:58:27;;;;;;;;;;;12.60;99.90;;;;;;5002561;28;19909;-78
2023/11/20 04:00:52;;;;;;;;;;;12.60;99.90;;;;;;5013053;28;19921;-74
2023/11/20 04:03:18;;;;;;;;;;;12.70;99.90;;;;;;5013596;28;20296;-78
2023/11/20 04:05:43;;;;;;;;;;;12.70;99.90;;;;;;5003807;28;19909;-73
2023/11/20 04:08:09;;;;;;;;;;;12.70;99.90;;;;;;4994241;28;19917;-77
2023/11/20 04:10:35;;;;;;;;;;;12.70;99.90;;;;;;4996636;28;19913;-73
2023/11/20 04:13:01;;;;;;;;;;;12.70;99.90;;;;;;5007705;28;19964;-73
2023/11/20 04:15:26;;;;;;;;;;;12.70;99.90;;;;;;5013726;28;19953;-77
2023/11/20 04:17:52;;;;;;;;;;;12.70;99.90;;;;;;5013675;28;19917;-74
2023/11/20 04:20:17;;;;;;;;;;;12.70;99.90;;;;;;5013709;28;19914;-74
2023/11/20 04:22:43;;;;;;;;;;;12.70;99.90;;;;;;5013508;28;20438;-77
2023/11/20 04:25:08;;;;;;;;;;;12.60;99.90;;;;;;5013787;28;19924;-77
2023/11/20 04:27:35;;;;;;;;;;;12.60;99.90;;;;;;5013413;28;19909;-74
2023/11/20 04:30:01;;;;;;;;;;;12.60;99.90;;;;;;5013269;28;19957;-74
2023/11/20 04:32:26;;;;;;;;;;;12.60;99.90;;;;;;5013390;28;20371;-74
2023/11/20 04:34:52;;;;;;;;;;;12.60;99.90;;;;;;5028586;28;19913;-77
2023/11/20 04:37:17;;;;;;;;;;;12.60;99.90;;;;;;5013033;28;19917;-77
2023/11/20 04:39:43;;;;;;;;;;;12.50;99.90;;;;;;5013363;28;19910;-78
2023/11/20 04:42:08;;;;;;;;;;;12.50;99.90;;;;;;5013382;28;19917;-73
2023/11/20 04:44:34;;;;;;;;;;;12.50;99.90;;;;;;5013230;28;19956;-74
2023/11/20 04:46:59;;;;;;;;;;;12.60;99.90;;;;;;5013575;28;20428;-77
2023/11/20 04:49:25;;;;;;;;;;;12.60;99.90;;;;;;5013208;28;19910;-77
2023/11/20 04:51:52;;;;;;;;;;;12.60;99.90;;;;;;5011849;28;19913;-74
2023/11/20 04:54:18;;;;;;;;;;;12.70;99.90;;;;;;5013155;28;19925;-74
2023/11/20 04:56:44;;;;;;;;;;;12.80;99.90;;;;;;4999814;28;19913;-76
2023/11/20 04:59:09;;;;;;;;;;;12.80;99.90;;;;;;4993599;28;20296;-74
2023/11/20 05:01:35;;;;;;;;;;;12.70;99.90;;;;;;5011774;28;19977;-77
2023/11/20 05:04:00;;;;;;;;;;;12.80;99.90;;;;;;5013022;28;19914;-77
2023/11/20 05:06:26;;;;;;;;;;;12.80;99.90;;;;;;5009969;28;19922;-73
2023/11/20 05:08:51;;;;;;;;;;;12.80;99.90;;;;;;4993566;28;19916;-73
2023/11/20 05:11:17;;;;;;;;;;;12.80;99.90;;;;;;4994063;28;20278;-74
2023/11/20 05:13:42;;;;;;;;;;;12.80;99.90;;;;;;5013136;28;19932;-77
2023/11/20 05:16:08;;;;;;;;;;;12.80;99.90;;;;;;5013048;28;19913;-77
2023/11/20 05:18:34;;;;;;;;;;;12.90;99.90;;;;;;5013172;28;19940;-74
2023/11/20 05:21:00;;;;;;;;;;;12.80;99.90;;;;;;5012867;28;19914;-74
2023/11/20 05:23:25;;;;;;;;;;;12.90;99.90;;;;;;5014698;28;19910;-77
2023/11/20 05:25:51;;;;;;;;;;;12.90;99.90;;;;;;5016685;28;20334;-77
2023/11/20 05:28:17;;;;;;;;;;;12.80;99.90;;;;;;5015921;28;20001;-77
2023/11/20 05:30:42;;;;;;;;;;;12.80;99.90;;;;;;5016501;28;19921;-74
2023/11/20 05:33:10;;;;;;;;;;;12.80;99.90;;;;;;5016625;28;19932;-73
2023/11/20 05:35:36;;;;;;;;;;;12.80;99.90;;;;;;5012062;28;20349;-74
2023/11/20 05:38:02;;;;;;;;;;;12.80;99.90;;;;;;4996042;28;19910;-73
2023/11/20 05:40:27;;;;;;;;;;;12.80;99.90;;;;;;4996826;28;20316;-78
2023/11/20 05:42:53;;;;;;;;;;;12.80;99.90;;;;;;4996977;28;19918;-78
2023/11/20 05:45:18;;;;;;;;;;;12.80;99.90;;;;;;4996732;28;19914;-77
2023/11/20 05:47:44;;;;;;;;;;;12.90;99.90;;;;;;4996769;28;19916;-77
2023/11/20 05:50:10;;;;;;;;;;;12.80;99.90;;;;;;5001423;28;20355;-76
2023/11/20 05:52:37;;;;;;;;;;;12.80;99.90;;;;;;5013302;28;19914;-77
2023/11/20 05:55:03;;;;;;;;;;;12.90;99.90;;;;;;4996512;28;19913;-77
2023/11/20 05:57:29;;;;;;;;;;;12.80;99.90;;;;;;5006096;28;19924;-74
2023/11/20 05:59:55;;;;;;;;;;;12.80;99.90;;;;;;5014067;28;20323;-74
2023/11/20 06:02:21;;;;;;;;;;;12.80;99.90;;;;;;5015454;28;19917;-74
2023/11/20 06:04:46;;;;;;;;;;;12.90;99.90;;;;;;5015852;28;19967;-73
2023/11/20 06:07:13;;;;;;;;;;;12.90;99.90;;;;;;5015852;28;19957;-74
2023/11/20 06:09:40;;;;;;;;;;;12.90;99.90;;;;;;5015671;28;19909;-76
2023/11/20 06:12:06;;;;;;;;;;;12.90;99.90;;;;;;5015752;28;19910;-73
2023/11/20 06:14:32;;;;;;;;;;;12.90;99.90;;;;;;5015735;28;19909;-73
2023/11/20 06:16:58;;;;;;;;;;;12.90;99.90;;;;;;5011222;28;19918;-76
2023/11/20 06:19:27;;;;;;;;;;;12.90;99.90;;;;;;5011347;28;19921;-74
2023/11/20 06:21:53;;;;;;;;;;;12.90;99.90;;;;;;4998109;28;19914;-77
2023/11/20 06:24:19;;;;;;;;;;;12.90;99.90;;;;;;5015512;28;20265;-73
2023/11/20 06:26:45;;;;;;;;;;;12.90;99.90;;;;;;5015623;28;19910;-73
2023/11/20 06:29:10;;;;;;;;;;;12.90;99.90;;;;;;5009496;28;19922;-77
2023/11/20 06:31:36;;;;;;;;;;;13.00;99.90;;;;;;5012407;28;19932;-77
2023/11/20 06:34:01;;;;;;;;;;;13.00;99.90;;;;;;5005031;28;19909;-77
2023/11/20 06:36:27;;;;;;;;;;;13.10;99.90;;;;;;4996805;28;20292;-73
2023/11/20 06:38:53;;;;;;;;;;;13.00;99.90;;;;;;5005008;28;20752;-74
2023/11/20 06:41:19;;;;;;;;;;;13.10;99.90;;;;;;5015031;28;19913;-74
2023/11/20 06:43:44;;;;;;;;;;;13.10;99.90;;;;;;5014651;28;19961;-74
2023/11/20 06:46:21;;;;;;;;;;;13.10;99.90;;;;;;5014901;28;20404;-77
2023/11/20 06:48:46;;;;;;;;;;;13.10;99.90;;;;;;5014514;28;20021;-74
2023/11/20 06:51:13;;;;;;;;;;;13.10;99.90;;;;;;5014046;28;19914;-74
2023/11/20 06:53:38;;;;;;;;;;;13.20;99.90;;;;;;5014681;28;19917;-74
2023/11/20 06:56:04;;;;;;;;;;;13.20;99.90;;;;;;5007097;28;19920;-74
2023/11/20 06:58:33;;;;;;;;;;;13.20;99.90;;;;;;5005920;28;20011;-77
2023/11/20 07:01:00;;;;;;;;;;;13.20;99.90;;;;;;5009241;28;19916;-77
2023/11/20 07:03:25;;;;;;;;;;;13.10;99.90;;;;;;5006643;28;19925;-73
2023/11/20 07:05:51;;;;;;;;;;;13.10;99.90;;;;;;5004825;28;19918;-74
2023/11/20 07:08:21;;;;;;;;;;;13.10;99.90;;;;;;5008037;28;19980;-77
2023/11/20 07:10:46;;;;;;;;;;;13.10;99.90;;;;;;5012804;28;19963;-77
2023/11/20 07:13:12;;;;;;;;;;;13.10;99.90;;;;;;5011937;28;20326;-74
2023/11/20 07:15:37;;;;;;;;;;;13.10;99.90;;;;;;5001253;28;19945;-74
2023/11/20 07:18:03;;;;;;;;;;;13.10;99.90;;;;;;4999413;28;19959;-74
2023/11/20 07:20:28;;;;;;;;;;;13.10;99.90;;;;;;5013041;28;19968;-73
2023/11/20 07:22:55;;;;;;;;;;;13.10;99.90;;;;;;5008498;28;19929;-76
2023/11/20 07:25:21;;;;;;;;;;;13.20;99.90;;;;;;5001252;28;19925;-77
2023/11/20 07:27:47;;;;;;;;;;;13.20;99.90;;;;;;5008689;28;19925;-77
2023/11/20 07:30:12;;;;;;;;;;;13.20;99.90;;;;;;5012216;28;19917;-76
2023/11/20 07:32:38;;;;;;;;;;;13.20;99.90;;;;;;5008559;28;20289;-74
2023/11/20 07:35:04;;;;;;;;;;;13.20;99.90;;;;;;5011436;28;20293;-75
2023/11/20 07:37:30;;;;;;;;;;;13.20;99.90;;;;;;5003492;28;19917;-77
2023/11/20 07:39:57;;;;;;;;;;;13.20;99.90;;;;;;5002451;28;20012;-74
2023/11/20 07:42:22;;;;;;;;;;;13.20;99.90;;;;;;5007469;28;19917;-74
2023/11/20 07:44:48;;;;;;;;;;;13.10;99.90;;;;;;5002744;28;19917;-75
2023/11/20 07:47:14;;;;;;;;;;;13.10;99.90;;;;;;5006261;28;20012;-77
2023/11/20 07:49:39;;;;;;;;;;;13.10;99.90;;;;;;4992882;28;20305;-77
2023/11/20 07:52:05;;;;;;;;;;;13.10;99.90;;;;;;4995870;28;20376;-77
2023/11/20 07:54:31;;;;;;;;;;;13.10;99.90;;;;;;5005228;28;19918;-74
2023/11/20 07:56:56;;;;;;;;;;;13.10;99.90;;;;;;5004496;28;19917;-74
2023/11/20 07:59:23;;;;;;;;;;;13.10;99.90;;;;;;5005957;28;19913;-75
2023/11/20 08:01:49;;;;;;;;;;;13.10;99.90;;;;;;5003698;28;19940;-77
2023/11/20 08:04:16;;;;;;;;;;;13.20;99.90;;;;;;4997077;28;19921;-77
2023/11/20 08:06:44;;;;;;;;;;;13.20;99.90;;;;;;5001637;28;19917;-77
2023/11/20 08:09:10;;;;;;;;;;;13.20;99.90;;;;;;5002840;28;19920;-74
2023/11/20 08:11:36;;;;;;;;;;;13.30;99.90;;;;;;4999298;28;19913;-74
2023/11/20 08:14:02;;;;;;;;;;;13.30;99.90;;;;;;5002398;28;20036;-75
2023/11/20 08:16:27;;;;;;;;;;;13.30;99.90;;;;;;5010248;28;20001;-77
2023/11/20 08:18:56;;;;;;;;;;;13.40;99.90;;;;;;5009989;28;19917;-74
2023/11/20 08:21:23;;;;;;;;;;;13.40;99.90;;;;;;5007008;28;20004;-74
2023/11/20 08:23:49;;;;;;;;;;;13.40;99.90;;;;;;5005178;28;20084;-74
2023/11/20 08:26:15;;;;;;;;;;;13.50;99.90;;;;;;5001432;28;19940;-74
2023/11/20 08:28:41;;;;;;;;;;;13.50;99.90;;;;;;5007283;28;20444;-76
2023/11/20 08:31:07;;;;;;;;;;;13.50;99.90;;;;;;5010518;28;20340;-76
2023/11/20 08:33:34;;;;;;;;;;;13.50;99.90;;;;;;4995808;28;19944;-74
2023/11/20 08:35:59;;;;;;;;;;;13.50;99.90;;;;;;5009026;28;19968;-74
2023/11/20 08:38:25;;;;;;;;;;;13.50;99.90;;;;;;4993295;28;20381;-74
2023/11/20 08:40:50;;;;;;;;;;;13.50;99.90;;;;;;5007748;28;19922;-74
2023/11/20 08:43:16;;;;;;;;;;;13.60;99.90;;;;;;5005776;28;20471;-77
2023/11/20 08:45:42;;;;;;;;;;;13.60;99.90;;;;;;4993978;28;19964;-74
2023/11/20 08:48:08;;;;;;;;;;;13.60;99.90;;;;;;5001143;28;19968;-74
2023/11/20 08:50:34;;;;;;;;;;;13.60;99.90;;;;;;5010820;28;19917;-74
2023/11/20 08:52:59;;;;;;;;;;;13.60;99.90;;;;;;5003956;28;19928;-77
2023/11/20 08:55:25;;;;;;;;;;;13.60;99.90;;;;;;5006684;28;19913;-76
2023/11/20 08:57:50;;;;;;;;;;;13.70;99.90;;;;;;4999439;28;20337;-76
2023/11/20 09:00:16;;;;;;;;;;;13.70;99.90;;;;;;5002760;28;19914;-74
2023/11/20 09:02:42;;;;;;;;;;;13.70;99.90;;;;;;5012906;28;19921;-74
2023/11/20 09:05:08;;;;;;;;;;;13.70;99.90;;;;;;5014083;28;19913;-74
2023/11/20 09:07:34;;;;;;;;;;;13.70;99.90;;;;;;5008716;28;19921;-77
2023/11/20 09:09:59;;;;;;;;;;;13.70;99.90;;;;;;5001377;28;19937;-76
2023/11/20 09:12:25;;;;;;;;;;;13.80;99.90;;;;;;5002552;28;19920;-75
2023/11/20 09:14:51;;;;;;;;;;;13.80;99.90;;;;;;5013758;28;20068;-74
2023/11/20 09:17:16;;;;;;;;;;;13.80;99.90;;;;;;5006647;28;19917;-75
2023/11/20 09:19:42;;;;;;;;;;;13.80;99.90;;;;;;5008113;28;20299;-74
2023/11/20 09:22:07;;;;;;;;;;;13.80;99.90;;;;;;5012343;28;20020;-77
2023/11/20 09:24:33;;;;;;;;;;;13.80;99.90;;;;;;5010121;28;20277;-77
2023/11/20 09:26:58;;;;;;;;;;;13.80;99.90;;;;;;5004284;28;19917;-74
2023/11/20 09:29:24;;;;;;;;;;;13.80;99.90;;;;;;5012612;28;20434;-75
2023/11/20 09:31:53;;;;;;;;;;;13.80;99.90;;;;;;5007405;28;19922;-74
2023/11/20 09:34:19;;;;;;;;;;;13.80;99.90;;;;;;5013019;28;19924;-77
2023/11/20 09:36:45;;;;;;;;;;;13.80;99.90;;;;;;5012699;28;20019;-77
2023/11/20 09:39:13;;;;;;;;;;;13.90;99.90;;;;;;5013285;28;20025;-74
2023/11/20 09:41:40;;;;;;;;;;;13.90;99.90;;;;;;5004101;28;19921;-76
2023/11/20 09:44:06;;;;;;;;;;;13.90;99.90;;;;;;5007243;28;19921;-76
2023/11/20 09:46:34;;;;;;;;;;;14.00;99.90;;;;;;5013142;28;20257;-78
2023/11/20 09:48:59;;;;;;;;;;;14.00;99.90;;;;;;4997412;28;19917;-78
2023/11/20 09:51:25;;;;;;;;;;;14.10;99.90;;;;;;5013115;28;19980;-76
2023/11/20 09:53:52;;;;;;;;;;;14.10;99.90;;;;;;4997652;28;19917;-75
2023/11/20 09:56:18;;;;;;;;;;;14.00;99.90;;;;;;5009146;28;20771;-75
2023/11/20 09:58:43;;;;;;;;;;;14.00;99.90;;;;;;5002947;28;19918;-80
2023/11/20 10:01:10;;;;;;;;;;;14.10;99.90;;;;;;4987112;28;19924;-81
2023/11/20 10:03:37;;;;;;;;;;;14.10;99.90;;;;;;4976261;28;19965;-76
2023/11/20 10:06:06;;;;;;;;;;;14.10;99.90;;;;;;4974264;28;20036;-77
2023/11/20 10:08:33;;;;;;;;;;;14.00;99.90;;;;;;4969672;28;19918;-76
2023/11/20 10:11:00;;;;;;;;;;;13.90;99.90;;;;;;4980308;28;19917;-81
2023/11/20 10:13:26;;;;;;;;;;;13.80;99.90;;;;;;4981461;28;20385;-80
2023/11/20 10:15:53;;;;;;;;;;;13.70;99.90;;;;;;4984969;28;20482;-80
2023/11/20 10:18:18;;;;;;;;;;;13.70;99.90;;;;;;4977173;28;20552;-76
2023/11/20 10:20:48;;;;;;;;;;;13.80;99.90;;;;;;4985720;28;19959;-76
2023/11/20 10:23:15;;;;;;;;;;;13.90;99.90;;;;;;4985862;28;20350;-76
2023/11/20 10:25:42;;;;;;;;;;;14.00;99.90;;;;;;4968741;28;20036;-76
2023/11/20 10:28:08;;;;;;;;;;;14.10;99.90;;;;;;4974519;28;19917;-81
2023/11/20 10:30:34;;;;;;;;;;;14.20;99.90;;;;;;4984766;28;19928;-75
2023/11/20 10:33:00;;;;;;;;;;;14.20;99.90;;;;;;4976201;28;19939;-76
2023/11/20 10:35:27;;;;;;;;;;;14.30;99.90;;;;;;4974303;28;19957;-76
2023/11/20 10:38:03;;;;;;;;;;;14.30;99.90;;;;;;4985262;28;19924;-80
2023/11/20 10:40:29;;;;;;;;;;;14.30;99.90;;;;;;4974883;28;20034;-79
2023/11/20 10:42:55;;;;;;;;;;;14.20;99.90;;;;;;4972881;28;19925;-80
2023/11/20 10:45:21;;;;;;;;;;;14.30;99.90;;;;;;4976993;28;20000;-76
2023/11/20 10:47:48;;;;;;;;;;;14.40;99.90;;;;;;4976054;28;20732;-77
2023/11/20 10:50:14;;;;;;;;;;;14.40;99.90;;;;;;4976280;28;19924;-79
2023/11/20 10:52:40;;;;;;;;;;;14.60;99.90;;;;;;4971809;28;20304;-76
2023/11/20 10:55:10;;;;;;;;;;;14.60;99.90;;;;;;4992062;28;20460;-80
2023/11/20 10:57:36;;;;;;;;;;;14.60;99.90;;;;;;5011089;28;19917;-75
2023/11/20 11:00:09;;;;;;;;;;;14.80;99.90;;;;;;5008782;28;20040;-76
2023/11/20 11:02:36;;;;;;;;;;;14.80;99.90;;;;;;5002292;28;20369;-76
2023/11/20 11:05:06;;;;;;;;;;;14.70;99.90;;;;;;5017078;28;19949;-80
2023/11/20 11:07:33;;;;;;;;;;;14.80;99.90;;;;;;4994772;28;19918;-80
2023/11/20 11:10:00;;;;;;;;;;;15.00;99.90;;;;;;4997659;28;20343;-76
2023/11/20 11:12:26;;;;;;;;;;;15.00;99.90;;;;;;5004524;28;19914;-76
2023/11/20 11:14:52;;;;;;;;;;;15.10;99.90;;;;;;5001071;28;19967;-76
2023/11/20 11:17:21;;;;;;;;;;;15.20;99.90;;;;;;5011986;28;19921;-79
2023/11/20 11:19:50;;;;;;;;;;;15.40;99.90;;;;;;5005864;28;20320;-78
2023/11/20 11:22:24;;;;;;;;;;;15.40;99.90;;;;;;5005953;28;20360;-75
2023/11/20 11:24:53;;;;;;;;;;;15.30;99.90;;;;;;5012052;28;19918;-79
2023/11/20 11:27:21;;;;;;;;;;;15.30;99.90;;;;;;5005068;28;19918;-76
2023/11/20 11:29:56;;;;;;;;;;;15.20;99.90;;;;;;5009126;28;19925;-79
2023/11/20 11:32:30;;;;;;;;;;;15.30;99.90;;;;;;5008672;28;19935;-79
2023/11/20 11:35:17;;;;;;;;;;;15.10;99.90;;;;;;5008653;28;19921;-75
2023/11/20 11:37:46;;;;;;;;;;;14.90;99.90;;;;;;5000213;28;20024;-75
2023/11/20 11:40:14;;;;;;;;;;;14.60;99.90;;;;;;4993070;28;19929;-75
2023/11/20 11:42:44;;;;;;;;;;;14.30;99.90;;;;;;5005137;28;20396;-75
2023/11/20 11:45:12;;;;;;;;;;;14.00;99.90;;;;;;5008992;28;20411;-79
2023/11/20 11:47:40;;;;;;;;;;;13.80;99.90;;;;;;5011384;28;19925;-75
2023/11/20 11:50:06;;;;;;;;;;;14.00;99.90;;;;;;5012082;28;19913;-79
2023/11/20 11:52:33;;;;;;;;;;;14.10;99.90;;;;;;5009074;28;19963;-76
2023/11/20 11:55:21;;;;;;;;;;;14.20;99.90;;;;;;5003849;28;19914;-75
2023/11/20 11:57:52;;;;;;;;;;;14.40;99.90;;;;;;4999665;28;19925;-79
2023/11/20 12:00:22;;;;;;;;;;;14.60;99.90;;;;;;4991580;28;20047;-79
2023/11/20 12:02:57;;;;;;;;;;;15.10;99.90;;;;;;4992962;28;19925;-76
2023/11/20 12:05:23;;;;;;;;;;;15.20;99.90;;;;;;4997410;28;19948;-75
2023/11/20 12:07:58;;;;;;;;;;;15.30;99.90;;;;;;4996204;28;20416;-76
2023/11/20 12:10:42;;;;;;;;;;;15.50;99.90;;;;;;5000461;28;19913;-79
2023/11/20 12:13:09;;;;;;;;;;;15.60;99.90;;;;;;4997792;28;19918;-79
2023/11/20 12:15:39;;;;;;;;;;;15.80;99.90;;;;;;5008239;28;19917;-79
2023/11/20 12:18:10;;;;;;;;;;;15.70;99.90;;;;;;5010816;28;19968;-77
2023/11/20 12:20:37;;;;;;;;;;;15.40;99.90;;;;;;5010980;28;19917;-77
2023/11/20 12:23:09;;;;;;;;;;;15.20;99.90;;;;;;5010820;28;19921;-79
2023/11/20 12:25:36;;;;;;;;;;;15.10;99.90;;;;;;5011257;28;20327;-78
2023/11/20 12:28:02;;;;;;;;;;;15.30;99.90;;;;;;5007694;28;20001;-75
2023/11/20 12:30:28;;;;;;;;;;;15.50;99.90;;;;;;5003436;28;19960;-76
2023/11/20 12:32:53;;;;;;;;;;;15.70;99.90;;;;;;5009956;28;19964;-74
2023/11/20 12:35:19;;;;;;;;;;;15.80;99.90;;;;;;5008026;28;19921;-79
2023/11/20 12:37:45;;;;;;;;;;;15.60;99.90;;;;;;5001129;28;19971;-79
2023/11/20 12:40:11;;;;;;;;;;;15.40;99.90;;;;;;4995801;28;19917;-76
2023/11/20 12:42:37;;;;;;;;;;;15.00;99.90;;;;;;4991009;28;19918;-75
2023/11/20 12:45:02;;;;;;;;;;;14.80;99.90;;;;;;4990576;28;19921;-75
2023/11/20 12:47:28;;;;;;;;;;;14.60;99.90;;;;;;5008564;28;19914;-75
2023/11/20 12:49:56;;;;;;;;;;;14.50;99.90;;;;;;5007089;28;19914;-77
2023/11/20 12:52:21;;;;;;;;;;;14.50;99.90;;;;;;4997138;28;19924;-76
2023/11/20 12:54:47;;;;;;;;;;;14.40;99.90;;;;;;4998288;28;19921;-74
2023/11/20 12:57:13;;;;;;;;;;;14.30;99.90;;;;;;5001856;28;20451;-74
2023/11/20 12:59:43;;;;;;;;;;;13.40;99.90;;;;;;4993289;28;20040;-75
2023/11/20 13:02:09;;;;;;;;;;;12.90;99.90;;;;;;5002939;28;19968;-78
2023/11/20 13:04:37;;;;;;;;;;;12.70;99.90;;;;;;5008771;28;19960;-78
2023/11/20 13:07:03;;;;;;;;;;;12.70;99.90;;;;;;5010417;28;19921;-74
2023/11/20 13:09:29;;;;;;;;;;;13.00;99.90;;;;;;5003600;28;20351;-77
2023/11/20 13:11:55;;;;;;;;;;;13.10;99.90;;;;;;5002027;28;19917;-74
2023/11/20 13:14:21;;;;;;;;;;;13.40;99.90;;;;;;5002965;28;19968;-77
2023/11/20 13:16:47;;;;;;;;;;;13.50;99.90;;;;;;5004291;28;21014;-77
2023/11/20 13:19:13;;;;;;;;;;;13.70;99.90;;;;;;4998666;28;19924;-74
2023/11/20 13:21:38;;;;;;;;;;;14.10;99.90;;;;;;5000789;28;19925;-76
2023/11/20 13:24:05;;;;;;;;;;;14.20;99.90;;;;;;4999238;28;20113;-75
2023/11/20 13:26:31;;;;;;;;;;;14.50;99.90;;;;;;5002149;28;19913;-76
2023/11/20 13:28:59;;;;;;;;;;;14.50;99.90;;;;;;4994127;28;19917;-74
2023/11/20 13:31:32;;;;;;;;;;;14.40;99.90;;;;;;5001864;28;19926;-81
2023/11/20 13:33:58;;;;;;;;;;;14.20;99.90;;;;;;5009181;28;19914;-75
2023/11/20 13:36:23;;;;;;;;;;;14.20;99.90;;;;;;5008687;28;19917;-78
2023/11/20 13:38:49;;;;;;;;;;;14.30;99.90;;;;;;4998161;28;19968;-74
2023/11/20 13:41:16;;;;;;;;;;;14.30;99.90;;;;;;4990117;28;19980;-78
2023/11/20 13:43:42;;;;;;;;;;;14.10;99.90;;;;;;4990683;28;20491;-79
2023/11/20 13:46:07;;;;;;;;;;;14.00;99.90;;;;;;4994780;28;20020;-75
2023/11/20 13:48:33;;;;;;;;;;;13.90;99.90;;;;;;5008432;28;20292;-78
2023/11/20 13:51:00;;;;;;;;;;;13.70;99.90;;;;;;5011475;28;20032;-75
2023/11/20 13:53:25;;;;;;;;;;;13.80;99.90;;;;;;5012712;28;19917;-78
2023/11/20 13:55:52;;;;;;;;;;;13.80;99.90;;;;;;4994437;28;19941;-79
2023/11/20 13:58:22;;;;;;;;;;;14.20;99.90;;;;;;5005184;28;19917;-75
2023/11/20 14:00:57;;;;;;;;;;;14.50;99.90;;;;;;5003256;28;20372;-77
2023/11/20 14:03:24;;;;;;;;;;;14.70;99.90;;;;;;5011674;28;19947;-76
2023/11/20 14:05:50;;;;;;;;;;;14.80;99.90;;;;;;4993592;28;20344;-79
2023/11/20 14:08:16;;;;;;;;;;;14.70;99.90;;;;;;5005242;28;19913;-78
2023/11/20 14:10:43;;;;;;;;;;;14.80;99.90;;;;;;5001656;28;20357;-78
2023/11/20 14:13:08;;;;;;;;;;;14.80;99.90;;;;;;5010722;28;19924;-76